createdAt,value
2018-07-14T00:00:17.941Z,1.00
2018-07-14T00:02:46.090Z,1.00
2018-07-14T00:05:14.234Z,1.00
2018-07-14T00:07:42.572Z,1.00
2018-07-14T00:10:10.728Z,1.00
2018-07-14T00:12:38.871Z,1.00
2018-07-14T00:15:07.041Z,1.00
2018-07-14T00:17:35.200Z,1.00
2018-07-14T00:20:04.063Z,1.00
2018-07-14T00:22:32.699Z,1.00
2018-07-14T00:25:00.866Z,1.00
2018-07-14T00:27:29.071Z,1.00
2018-07-14T00:29:57.242Z,1.00
2018-07-14T00:32:25.386Z,1.00
2018-07-14T00:34:53.520Z,1.00
2018-07-14T00:37:21.676Z,1.00
2018-07-14T00:39:49.811Z,1.00
2018-07-14T00:42:17.973Z,1.00
2018-07-14T00:44:46.176Z,1.00
2018-07-14T00:47:14.329Z,1.00
2018-07-14T00:49:42.479Z,1.00
2018-07-14T00:52:10.612Z,1.00
2018-07-14T00:54:38.743Z,1.00
2018-07-14T00:57:06.885Z,1.00
2018-07-14T00:59:35.037Z,1.00
2018-07-14T01:02:03.180Z,1.00
2018-07-14T01:04:31.337Z,1.00
2018-07-14T01:09:27.444Z,1.00
2018-07-14T01:11:55.648Z,1.00
2018-07-14T01:14:23.776Z,1.00
2018-07-14T01:16:51.989Z,1.00
2018-07-14T01:19:20.214Z,1.00
2018-07-14T01:21:48.344Z,1.00
2018-07-14T01:24:16.522Z,1.00
2018-07-14T01:26:44.937Z,1.00
2018-07-14T01:29:14.209Z,1.00
2018-07-14T01:31:42.683Z,1.00
2018-07-14T01:34:10.867Z,1.00
2018-07-14T01:36:39.085Z,1.00
2018-07-14T01:39:07.955Z,1.00
2018-07-14T01:41:36.182Z,1.00
2018-07-14T01:44:04.321Z,1.00
2018-07-14T01:46:32.516Z,1.00
2018-07-14T01:49:00.678Z,1.00
2018-07-14T01:51:28.845Z,1.00
2018-07-14T01:53:57.036Z,1.00
2018-07-14T01:56:25.176Z,1.00
2018-07-14T01:58:53.360Z,1.00
2018-07-14T02:01:21.508Z,1.00
2018-07-14T02:03:49.648Z,1.00
2018-07-14T02:06:18.302Z,1.00
2018-07-14T02:08:46.456Z,1.00
2018-07-14T02:11:15.418Z,1.00
2018-07-14T02:13:43.599Z,1.00
2018-07-14T02:16:11.748Z,1.00
2018-07-14T02:18:39.905Z,1.00
2018-07-14T02:21:08.057Z,1.00
2018-07-14T02:23:36.208Z,1.00
2018-07-14T02:26:04.371Z,1.00
2018-07-14T02:28:32.543Z,1.00
2018-07-14T02:31:00.688Z,1.00
2018-07-14T02:33:28.976Z,1.00
2018-07-14T02:35:57.155Z,1.70
2018-07-14T02:38:25.318Z,1.60
2018-07-14T02:40:53.543Z,2.30
2018-07-14T02:43:21.713Z,2.00
2018-07-14T02:45:49.856Z,2.00
2018-07-14T02:48:18.018Z,1.80
2018-07-14T02:50:46.544Z,2.30
2018-07-14T02:53:14.677Z,2.60
2018-07-14T02:55:42.849Z,2.60
2018-07-14T02:58:11.111Z,1.60
2018-07-14T03:00:39.265Z,1.80
2018-07-14T03:03:07.458Z,1.90
2018-07-14T03:05:35.624Z,2.20
2018-07-14T03:08:03.757Z,2.00
2018-07-14T03:10:31.908Z,2.70
2018-07-14T03:13:00.224Z,2.10
2018-07-14T03:15:28.344Z,2.20
2018-07-14T03:17:56.535Z,1.50
2018-07-14T03:20:24.672Z,2.00
2018-07-14T03:22:52.832Z,1.90
2018-07-14T03:25:21.012Z,2.10
2018-07-14T03:27:49.212Z,1.80
2018-07-14T03:30:17.368Z,1.50
2018-07-14T03:32:45.556Z,2.00
2018-07-14T03:35:13.803Z,2.30
2018-07-14T03:37:41.929Z,2.00
2018-07-14T03:40:10.092Z,1.80
2018-07-14T03:42:38.238Z,2.30
2018-07-14T03:45:06.744Z,1.80
2018-07-14T03:47:34.976Z,1.90
2018-07-14T03:50:03.117Z,2.40
2018-07-14T03:52:31.265Z,2.70
2018-07-14T03:54:59.453Z,2.40
2018-07-14T03:57:27.648Z,1.70
2018-07-14T03:59:55.833Z,1.50
2018-07-14T04:02:24.019Z,1.50
2018-07-14T04:04:52.224Z,2.20
2018-07-14T04:07:20.360Z,1.90
2018-07-14T04:09:48.537Z,1.00
2018-07-14T04:12:16.698Z,1.50
2018-07-14T04:14:44.920Z,1.60
2018-07-14T04:17:12.998Z,1.00
2018-07-14T04:19:41.119Z,1.00
2018-07-14T04:22:09.243Z,1.20
2018-07-14T04:24:37.388Z,1.50
2018-07-14T04:27:05.576Z,2.10
2018-07-14T04:29:33.712Z,2.50
2018-07-14T04:32:01.975Z,2.80
2018-07-14T04:34:30.035Z,3.00
2018-07-14T04:36:58.293Z,3.60
2018-07-14T04:39:26.457Z,3.70
2018-07-14T04:41:54.676Z,3.60
2018-07-14T04:44:22.824Z,3.90
2018-07-14T04:46:50.999Z,3.60
2018-07-14T04:49:19.139Z,4.40
2018-07-14T04:51:47.335Z,6.30
2018-07-14T04:54:15.492Z,6.90
2018-07-14T04:56:43.638Z,9.00
2018-07-14T04:59:11.751Z,9.40
2018-07-14T05:01:39.903Z,9.20
2018-07-14T05:04:08.056Z,9.30
2018-07-14T05:06:36.204Z,9.60
2018-07-14T05:09:05.207Z,10.00
2018-07-14T05:11:33.359Z,9.30
2018-07-14T05:14:01.561Z,10.90
2018-07-14T05:16:29.732Z,10.10
2018-07-14T05:18:57.944Z,12.00
2018-07-14T05:21:26.182Z,10.10
2018-07-14T05:23:54.297Z,10.90
2018-07-14T05:26:22.473Z,7.80
2018-07-14T05:28:50.674Z,7.40
2018-07-14T05:31:18.830Z,7.90
2018-07-14T05:36:15.027Z,8.50
2018-07-14T05:38:43.163Z,11.30
2018-07-14T05:41:11.331Z,10.00
2018-07-14T05:43:39.495Z,10.30
2018-07-14T05:46:07.632Z,9.20
2018-07-14T05:48:35.788Z,12.10
2018-07-14T05:51:03.932Z,10.40
2018-07-14T05:53:32.092Z,10.10
2018-07-14T05:56:00.304Z,10.50
2018-07-14T05:58:28.486Z,11.70
2018-07-14T06:00:56.640Z,12.10
2018-07-14T06:03:24.796Z,13.40
2018-07-14T06:05:52.946Z,12.60
2018-07-14T06:08:21.288Z,10.70
2018-07-14T06:10:49.436Z,12.40
2018-07-14T06:13:17.600Z,13.00
2018-07-14T06:15:45.878Z,13.50
2018-07-14T06:20:41.995Z,12.90
2018-07-14T06:23:10.124Z,13.40
2018-07-14T06:25:38.272Z,13.60
2018-07-14T06:28:06.434Z,13.70
2018-07-14T06:30:34.679Z,12.90
2018-07-14T06:33:02.853Z,11.60
2018-07-14T06:35:31.077Z,12.50
2018-07-14T06:37:59.264Z,12.90
2018-07-14T06:42:55.377Z,11.40
2018-07-14T06:45:23.540Z,11.40
2018-07-14T06:47:51.737Z,11.20
2018-07-14T06:50:19.909Z,10.10
2018-07-14T06:52:48.067Z,8.50
2018-07-14T06:55:16.246Z,11.90
2018-07-14T06:57:44.428Z,11.10
2018-07-14T07:00:18.329Z,5.80
2018-07-14T07:02:46.479Z,6.00
2018-07-14T07:05:14.645Z,8.30
2018-07-14T07:07:42.768Z,8.20
2018-07-14T07:10:10.938Z,8.10
2018-07-14T07:12:39.251Z,7.00
2018-07-14T07:15:07.466Z,6.90
2018-07-14T07:17:35.720Z,2.90
2018-07-14T07:20:03.898Z,3.90
2018-07-14T07:22:32.020Z,4.40
2018-07-14T07:25:00.197Z,2.60
2018-07-14T07:27:28.337Z,1.10
2018-07-14T07:29:56.496Z,3.50
2018-07-14T07:32:24.816Z,4.30
2018-07-14T07:34:53.073Z,3.70
2018-07-14T07:37:21.260Z,2.50
2018-07-14T07:39:49.436Z,1.00
2018-07-14T07:42:17.634Z,1.00
2018-07-14T07:44:45.900Z,3.10
2018-07-14T07:47:14.063Z,1.00
2018-07-14T07:49:42.219Z,6.40
2018-07-14T07:52:10.366Z,7.00
2018-07-14T07:54:38.785Z,1.00
2018-07-14T07:57:06.949Z,1.00
2018-07-14T07:59:35.087Z,1.00
2018-07-14T08:02:03.268Z,1.00
2018-07-14T08:04:31.403Z,1.00
2018-07-14T08:06:59.537Z,1.00
2018-07-14T08:09:28.165Z,1.00
2018-07-14T08:11:56.507Z,1.00
2018-07-14T08:16:52.622Z,1.00
2018-07-14T08:19:20.767Z,1.00
2018-07-14T08:21:48.912Z,1.00
2018-07-14T08:24:17.086Z,1.00
2018-07-14T08:26:45.292Z,1.00
2018-07-14T08:29:13.509Z,1.00
2018-07-14T08:31:41.652Z,1.00
2018-07-14T08:34:09.837Z,1.00
2018-07-14T08:36:38.011Z,1.00
2018-07-14T08:39:06.864Z,1.00
2018-07-14T08:41:35.041Z,1.00
2018-07-14T08:44:03.206Z,1.00
2018-07-14T08:46:31.360Z,1.00
2018-07-14T08:48:59.573Z,1.00
2018-07-14T08:51:28.045Z,1.00
2018-07-14T08:53:56.194Z,1.00
2018-07-14T08:56:24.365Z,1.00
2018-07-14T08:58:52.495Z,1.00
2018-07-14T09:01:20.651Z,1.00
2018-07-14T09:03:48.800Z,1.00
2018-07-14T09:06:16.946Z,1.00
2018-07-14T09:08:45.096Z,1.00
2018-07-14T09:11:13.242Z,1.00
2018-07-14T09:13:41.396Z,1.00
2018-07-14T09:16:09.560Z,1.00
2018-07-14T09:18:37.737Z,1.00
2018-07-14T09:21:06.097Z,1.00
2018-07-14T09:23:34.272Z,1.00
2018-07-14T09:26:02.506Z,1.00
2018-07-14T09:28:30.640Z,1.00
2018-07-14T09:30:58.786Z,1.00
2018-07-14T09:33:26.932Z,1.00
2018-07-14T09:35:55.096Z,1.00
2018-07-14T09:38:23.252Z,1.00
2018-07-14T09:40:51.390Z,1.00
2018-07-14T09:43:19.591Z,1.00
2018-07-14T09:45:47.740Z,1.00
2018-07-14T09:48:15.927Z,1.00
2018-07-14T09:50:44.088Z,1.00
2018-07-14T09:53:12.269Z,1.00
2018-07-14T09:55:40.434Z,1.00
2018-07-14T09:58:08.569Z,1.00
2018-07-14T10:00:40.963Z,1.00
2018-07-14T10:03:09.117Z,1.00
2018-07-14T10:05:37.260Z,1.00
2018-07-14T10:08:05.685Z,1.00
2018-07-14T10:10:33.848Z,1.00
2018-07-14T10:13:02.160Z,1.00
2018-07-14T10:15:30.319Z,1.00
2018-07-14T10:17:58.698Z,1.00
2018-07-14T10:20:26.824Z,1.00
2018-07-14T10:22:54.976Z,1.00
2018-07-14T10:25:23.230Z,1.00
2018-07-14T10:27:51.261Z,1.00
2018-07-14T10:30:19.452Z,1.00
2018-07-14T10:32:47.670Z,1.00
2018-07-14T10:35:15.812Z,1.00
2018-07-14T10:37:43.985Z,1.00
2018-07-14T10:40:12.127Z,1.00
2018-07-14T10:42:40.266Z,1.00
2018-07-14T10:45:08.413Z,1.00
2018-07-14T10:47:36.570Z,1.00
2018-07-14T10:50:04.978Z,1.00
2018-07-14T10:52:33.117Z,1.00
2018-07-14T10:55:01.459Z,1.00
2018-07-14T10:57:29.620Z,1.00
2018-07-14T10:59:57.764Z,1.00
2018-07-14T11:02:25.943Z,1.00
2018-07-14T11:04:54.076Z,1.00
2018-07-14T11:07:22.289Z,1.00
2018-07-14T11:09:50.459Z,1.00
2018-07-14T11:12:18.610Z,1.00
2018-07-14T11:14:47.123Z,1.00
2018-07-14T11:17:15.277Z,1.00
2018-07-14T11:19:43.417Z,1.00
2018-07-14T11:22:11.581Z,1.00
2018-07-14T11:24:39.781Z,1.00
2018-07-14T11:27:07.955Z,1.00
2018-07-14T11:29:36.252Z,1.00
2018-07-14T11:32:04.536Z,1.00
2018-07-14T11:34:32.689Z,1.00
2018-07-14T11:37:00.981Z,1.00
2018-07-14T11:39:29.244Z,1.00
2018-07-14T11:41:57.417Z,1.00
2018-07-14T11:44:25.985Z,1.00
2018-07-14T11:46:54.128Z,1.00
2018-07-14T11:49:22.313Z,1.00
2018-07-14T11:51:50.468Z,1.00
2018-07-14T11:54:18.687Z,1.00
2018-07-14T11:56:46.761Z,1.00
2018-07-14T11:59:14.904Z,1.00
2018-07-14T12:01:43.082Z,1.00
2018-07-14T12:04:11.268Z,1.00
2018-07-14T12:06:39.720Z,1.00
2018-07-14T12:09:07.973Z,1.00
2018-07-14T12:11:36.170Z,1.00
2018-07-14T12:14:04.332Z,1.00
2018-07-14T12:16:32.500Z,1.00
2018-07-14T12:19:00.716Z,1.00
2018-07-14T12:21:28.872Z,1.00
2018-07-14T12:23:57.041Z,1.00
2018-07-14T12:26:25.232Z,1.00
2018-07-14T12:28:53.401Z,1.00
2018-07-14T12:31:21.524Z,1.00
2018-07-14T12:33:49.688Z,1.00
2018-07-14T12:36:17.869Z,1.00
2018-07-14T12:38:46.012Z,1.00
2018-07-14T12:41:14.374Z,1.00
2018-07-14T12:43:42.560Z,1.00
2018-07-14T12:46:10.736Z,1.00
2018-07-14T12:48:38.879Z,1.00
2018-07-14T12:51:07.069Z,1.00
2018-07-14T12:53:35.433Z,1.00
2018-07-14T12:56:03.664Z,1.00
2018-07-14T12:58:31.840Z,1.00
2018-07-14T13:00:59.990Z,1.00
2018-07-14T13:05:56.056Z,1.00
2018-07-14T13:08:24.292Z,1.00
2018-07-14T13:10:52.494Z,1.00
2018-07-14T13:13:20.713Z,1.00
2018-07-14T13:15:48.857Z,1.00
2018-07-14T13:18:17.033Z,1.00
2018-07-14T13:20:45.387Z,1.00
2018-07-14T13:23:13.577Z,1.00
2018-07-14T13:25:41.835Z,1.00
2018-07-14T13:28:09.977Z,1.00
2018-07-14T13:30:38.159Z,1.00
2018-07-14T13:33:06.309Z,1.00
2018-07-14T13:35:34.544Z,1.00
2018-07-14T13:38:02.678Z,1.00
2018-07-14T13:40:30.826Z,1.00
2018-07-14T13:42:58.972Z,1.00
2018-07-14T13:45:27.121Z,1.00
2018-07-14T13:47:55.608Z,1.00
2018-07-14T13:50:24.112Z,1.00
2018-07-14T13:52:52.290Z,1.00
2018-07-14T13:55:20.549Z,1.00
2018-07-14T13:57:48.735Z,1.00
2018-07-14T14:00:16.933Z,1.00
2018-07-14T14:02:45.100Z,1.00
2018-07-14T14:05:13.280Z,1.00
2018-07-14T14:07:41.497Z,1.00
2018-07-14T14:10:09.682Z,1.00
2018-07-14T14:12:37.856Z,1.00
2018-07-14T14:15:06.591Z,1.00
2018-07-14T14:17:35.479Z,1.00
2018-07-14T14:20:03.832Z,1.00
2018-07-14T14:22:31.990Z,1.00
2018-07-14T14:25:00.185Z,1.00
2018-07-14T14:27:28.402Z,1.00
2018-07-14T14:29:56.573Z,1.00
2018-07-14T14:32:24.714Z,1.00
2018-07-14T14:34:52.903Z,1.00
2018-07-14T14:37:21.108Z,1.00
2018-07-14T14:39:49.264Z,1.00
2018-07-14T14:42:17.431Z,1.00
2018-07-14T14:44:46.063Z,1.00
2018-07-14T14:47:14.244Z,1.00
2018-07-14T14:49:42.446Z,1.00
2018-07-14T14:52:10.592Z,1.00
2018-07-14T14:54:38.832Z,1.00
2018-07-14T14:57:07.037Z,1.00
2018-07-14T14:59:35.147Z,1.00
2018-07-14T15:02:03.477Z,1.00
2018-07-14T15:04:31.641Z,1.00
2018-07-14T15:06:59.813Z,1.00
2018-07-14T15:09:28.041Z,1.00
2018-07-14T15:11:56.212Z,1.00
2018-07-14T15:14:24.377Z,1.00
2018-07-14T15:16:52.559Z,1.00
2018-07-14T15:19:20.768Z,1.00
2018-07-14T15:21:48.964Z,1.00
2018-07-14T15:24:17.201Z,1.00
2018-07-14T15:26:45.382Z,1.00
2018-07-14T15:29:13.582Z,1.00
2018-07-14T15:31:41.765Z,1.00
2018-07-14T15:34:09.969Z,1.00
2018-07-14T15:36:38.320Z,1.00
2018-07-14T15:39:07.560Z,1.00
2018-07-14T15:41:35.834Z,1.00
2018-07-14T15:44:03.929Z,1.00
2018-07-14T15:46:32.064Z,1.00
2018-07-14T15:49:00.270Z,1.00
2018-07-14T15:51:28.416Z,1.00
2018-07-14T15:53:56.544Z,1.00
2018-07-14T15:56:24.713Z,1.00
2018-07-14T15:58:53.065Z,1.00
2018-07-14T16:01:21.258Z,1.00
2018-07-14T16:03:49.395Z,1.00
2018-07-14T16:06:19.626Z,1.00
2018-07-14T16:08:47.844Z,1.00
2018-07-14T16:11:15.984Z,1.00
2018-07-14T16:13:44.173Z,1.00
2018-07-14T16:16:12.343Z,1.00
2018-07-14T16:18:40.551Z,1.00
2018-07-14T16:21:08.943Z,1.00
2018-07-14T16:23:37.149Z,1.00
2018-07-14T16:26:05.299Z,1.00
2018-07-14T16:28:33.891Z,1.00
2018-07-14T16:31:02.117Z,1.00
2018-07-14T16:33:30.250Z,1.00
2018-07-14T16:35:58.544Z,1.00
2018-07-14T16:38:26.696Z,1.00
2018-07-14T16:40:54.866Z,1.00
2018-07-14T16:43:23.050Z,1.00
2018-07-14T16:45:51.226Z,1.00
2018-07-14T16:48:19.364Z,1.00
2018-07-14T16:50:47.604Z,1.00
2018-07-14T16:53:16.051Z,1.00
2018-07-14T16:55:44.366Z,1.00
2018-07-14T16:58:12.564Z,1.00
2018-07-14T17:00:40.716Z,1.00
2018-07-14T17:03:08.913Z,1.00
2018-07-14T17:05:37.613Z,1.00
2018-07-14T17:08:05.842Z,1.00
2018-07-14T17:10:33.995Z,1.00
2018-07-14T17:13:02.212Z,1.00
2018-07-14T17:15:30.393Z,1.00
2018-07-14T17:20:33.217Z,1.00
2018-07-14T17:23:01.407Z,1.00
2018-07-14T17:25:29.562Z,1.00
2018-07-14T17:27:57.759Z,1.00
2018-07-14T17:30:26.042Z,1.00
2018-07-14T17:32:54.417Z,1.00
2018-07-14T17:35:22.601Z,1.00
2018-07-14T17:37:50.806Z,1.00
2018-07-14T17:40:18.969Z,1.00
2018-07-14T17:42:47.210Z,1.00
2018-07-14T17:45:15.356Z,1.00
2018-07-14T17:47:43.566Z,1.00
2018-07-14T17:50:11.736Z,1.00
2018-07-14T17:52:39.948Z,1.00
2018-07-14T17:55:08.087Z,1.00
2018-07-14T17:57:37.363Z,1.00
2018-07-14T18:00:05.533Z,1.00
2018-07-14T18:02:33.805Z,1.00
2018-07-14T18:05:02.002Z,1.00
2018-07-14T18:07:30.324Z,1.00
2018-07-14T18:09:58.661Z,1.00
2018-07-14T18:12:26.884Z,1.00
2018-07-14T18:14:55.162Z,1.00
2018-07-14T18:17:23.378Z,1.00
2018-07-14T18:19:51.494Z,1.00
2018-07-14T18:22:19.649Z,1.00
2018-07-14T18:24:48.268Z,1.00
2018-07-14T18:27:16.462Z,1.00
2018-07-14T18:29:44.683Z,1.00
2018-07-14T18:32:12.843Z,1.00
2018-07-14T18:34:41.053Z,1.00
2018-07-14T18:37:09.248Z,1.00
2018-07-14T18:39:37.501Z,1.00
2018-07-14T18:42:05.843Z,1.00
2018-07-14T18:44:34.040Z,1.00
2018-07-14T18:47:02.276Z,1.00
2018-07-14T18:49:30.492Z,1.00
2018-07-14T18:51:58.715Z,1.00
2018-07-14T18:54:26.871Z,1.00
2018-07-14T18:56:55.018Z,1.00
2018-07-14T18:59:23.190Z,1.00
2018-07-14T19:01:51.391Z,1.00
2018-07-14T19:04:19.583Z,1.00
2018-07-14T19:06:47.756Z,1.00
2018-07-14T19:09:16.352Z,1.00
2018-07-14T19:11:44.469Z,1.00
2018-07-14T19:14:12.809Z,1.00
2018-07-14T19:16:40.960Z,1.00
2018-07-14T19:19:09.181Z,1.00
2018-07-14T19:21:37.373Z,1.00
2018-07-14T19:24:05.587Z,1.00
2018-07-14T19:26:33.833Z,1.00
2018-07-14T19:29:01.967Z,1.00
2018-07-14T19:31:30.104Z,1.00
2018-07-14T19:33:58.291Z,1.00
2018-07-14T19:36:26.423Z,1.00
2018-07-14T19:38:54.629Z,1.00
2018-07-14T19:41:22.774Z,1.00
2018-07-14T19:43:50.945Z,1.00
2018-07-14T19:46:19.213Z,1.00
2018-07-14T19:48:47.436Z,1.00
2018-07-14T19:51:15.595Z,1.00
2018-07-14T19:53:43.768Z,1.00
2018-07-14T19:56:11.962Z,1.00
2018-07-14T19:58:40.076Z,1.00
2018-07-14T20:01:08.349Z,1.00
2018-07-14T20:03:36.519Z,1.00
2018-07-14T20:08:32.706Z,1.00
2018-07-14T20:11:00.847Z,1.00
2018-07-14T20:13:29.073Z,1.00
2018-07-14T20:15:57.483Z,1.00
2018-07-14T20:18:25.648Z,1.00
2018-07-14T20:20:53.857Z,1.00
2018-07-14T20:23:22.039Z,1.00
2018-07-14T20:25:50.232Z,1.00
2018-07-14T20:28:18.364Z,1.00
2018-07-14T20:30:46.668Z,1.00
2018-07-14T20:33:14.810Z,1.00
2018-07-14T20:35:43.017Z,1.00
2018-07-14T20:38:11.184Z,1.00
2018-07-14T20:40:39.394Z,1.00
2018-07-14T20:43:07.524Z,1.00
2018-07-14T20:45:35.744Z,1.00
2018-07-14T20:48:04.021Z,1.00
2018-07-14T20:50:32.216Z,1.00
2018-07-14T20:53:00.557Z,1.00
2018-07-14T20:55:28.905Z,1.00
2018-07-14T20:57:57.101Z,1.00
2018-07-14T21:00:25.328Z,1.00
2018-07-14T21:02:53.485Z,1.00
2018-07-14T21:05:21.641Z,1.00
2018-07-14T21:07:49.807Z,1.00
2018-07-14T21:10:17.936Z,1.00
2018-07-14T21:12:46.126Z,1.00
2018-07-14T21:15:14.208Z,1.00
2018-07-14T21:17:42.397Z,1.00
2018-07-14T21:20:10.571Z,1.00
2018-07-14T21:22:38.755Z,1.00
2018-07-14T21:25:06.938Z,1.00
2018-07-14T21:27:35.121Z,1.00
2018-07-14T21:30:03.358Z,1.00
2018-07-14T21:32:31.517Z,1.00
2018-07-14T21:34:59.669Z,1.00
2018-07-14T21:37:27.847Z,1.00
2018-07-14T21:39:56.023Z,1.00
2018-07-14T21:42:24.140Z,1.00
2018-07-14T21:44:52.300Z,1.00
2018-07-14T21:47:20.567Z,1.00
2018-07-14T21:49:48.704Z,1.00
2018-07-14T21:52:16.887Z,1.00
2018-07-14T21:54:45.086Z,1.00
2018-07-14T21:57:13.254Z,1.00
2018-07-14T21:59:41.420Z,1.00
2018-07-14T22:02:09.686Z,1.00
2018-07-14T22:04:37.845Z,1.00
2018-07-14T22:07:06.047Z,1.00
2018-07-14T22:09:34.236Z,1.00
2018-07-14T22:12:02.402Z,1.00
2018-07-14T22:14:30.848Z,1.00
2018-07-14T22:16:59.073Z,1.00
2018-07-14T22:19:27.257Z,1.00
2018-07-14T22:21:55.388Z,1.00
2018-07-14T22:24:23.583Z,1.00
2018-07-14T22:26:51.744Z,1.00
2018-07-14T22:29:19.950Z,1.00
2018-07-14T22:31:48.065Z,1.00
2018-07-14T22:34:16.233Z,1.00
2018-07-14T22:39:12.300Z,1.00
2018-07-14T22:41:43.816Z,1.00
2018-07-14T22:44:11.970Z,1.00
2018-07-14T22:46:40.207Z,1.00
2018-07-14T22:49:08.360Z,1.00
2018-07-14T22:51:36.554Z,1.00
2018-07-14T22:54:04.832Z,1.00
2018-07-14T22:56:33.004Z,1.00
2018-07-14T23:01:29.055Z,1.00
2018-07-14T23:03:57.210Z,1.00
2018-07-14T23:06:25.341Z,1.00
2018-07-14T23:08:53.496Z,1.00
2018-07-14T23:11:21.632Z,1.00
2018-07-14T23:13:49.888Z,1.00
2018-07-14T23:16:18.054Z,1.00
2018-07-14T23:21:14.154Z,1.00
2018-07-14T23:23:42.477Z,1.00
2018-07-14T23:26:10.667Z,1.00
2018-07-14T23:28:38.837Z,1.00
2018-07-14T23:31:07.026Z,1.00
2018-07-14T23:33:35.175Z,1.00
2018-07-14T23:36:03.305Z,1.00
2018-07-14T23:38:31.500Z,1.00
2018-07-14T23:40:59.640Z,1.00
2018-07-14T23:43:27.817Z,1.00
2018-07-14T23:45:55.961Z,1.00
2018-07-14T23:48:24.136Z,1.00
2018-07-14T23:50:52.279Z,1.00
2018-07-14T23:53:20.483Z,1.00
2018-07-14T23:55:48.653Z,1.00
2018-07-14T23:58:16.800Z,1.00
